Aeroporto :
LOGIN :

Iscrizione | Disclaimer

   EN    FR    IT 

 










Sommario :    VFR   VFR Marginale   IFR   IFR Intensivo   IFR Molto Intensivo
Visibilità : 
Base nubi : 
>= 8 km
>= 3000ft
5 / 8 km
1000 / 3000 ft
1500m / 5 km
500 / 1000 ft
800 / 1500m
200 / 500 ft
< 800m
< 200 ft
Simboli :   Temporali  Nebbia  Neve Forte  Precipitazioni Forti  Vento > 20 kt
SIGMETs :   Varie  Temporali  Ghiacco  Turbolenza  Onda orograficha  Ceneri Vulcaniche






- Altitudine del aeroporto : 299 ft
- Codice IATA : EDM


LFRI - La Roche Sur Yon - Les Ajoncs

ULTIMO METAR :
  • 122100Z AUTO 30004KT CAVOK 04/03 Q1007 NOSIG

METARs OBSOLETI :
  • 122030Z AUTO 30003KT CAVOK 04/04 Q1007 NOSIG
  • 122000Z AUTO 30002KT CAVOK 05/05 Q1007 NOSIG
  • 121930Z AUTO 28002KT CAVOK 05/05 Q1007 NOSIG
  • 121900Z AUTO 31002KT CAVOK 05/04 Q1007 NOSIG
  • 121830Z AUTO 29002KT CAVOK 06/05 Q1006 NOSIG

TAF TAF LFRI
Valido dal 12 a 18 ore il 13 a 18 ore UTC


121700Z 1218/1318 26005KT 9999 SCT030
BECMG 1314/1316 20010KT
TEMPO 1313/1318 4000 SHRA BKN018 SCT026TCU



MetMap, La meteo Aeronautica in un colpo d'occhio ! - Copyright ORBIFLY Dicembre 2007 - Disclaimer

ORBIFLY MET'MAP TEAM :

Programmazione e sviluppo : Alexandra Zaïnal
Concezione e sviluppo : Baudouin d'Aumeries
Co-Programmazione e sviluppo : Marc-Olivier Méhu
Supporto tecnico e logistico : Manuel Goepfert
Aiuto per la traduzione : Arnaldo La Scala

Contatto : metmap@orbifly.com




FONTI E CREDITI :

   NOAA